Grayling, Alaska
Current Conditions -  °F | °C
As of 11:36 PM on Wednesday 17 Dec 2014 (Local Time) from PANV Reporting Station
Overcast Overcast  
Wind Chill: 10°   Ceiling: 200
Heat Index: 19°   Visibility: 1.5mi
Dew Point: 16°   Wind: 7mph
Humidity: 86%   Direction: 50°NE
Pressure: 29.6"   Gusts: NA
Location:  62.92°N, 160.07°W
Report Text: PANV 180836Z AUTO 05006KT 1 1/2SM OVC002 M07/M09 A2960 RMK AO1
Loading
Personal Weather Stations






























Interactive Weather Map New forecast layout! Learn more

10-Day Weather Forecast

Advertisements
Track Severe Weather on mobile